Time;durP1;ratioP1;P1;durP2;ratioP2;P2;SDS_P1;SDS_P2;PMS_P1;PMS_P2;Temp;Humidity;BMP_temperature;BMP_pressure;BME280_temperature;BME280_humidity;BME280_pressure;Samples;Min_cycle;Max_cycle;Signal;HPM_P1;HPM_P2
2022/07/09 00:02:23;;;;;;;;;12.25;10.00;;;;;22.74;41.47;102272.41;5035444;28;69567;-49
2022/07/09 00:04:49;;;;;;;;;13.25;9.00;;;;;22.73;41.20;102276.03;5029257;28;54433;-44
2022/07/09 00:07:14;;;;;;;;;9.25;8.75;;;;;22.68;42.18;102270.09;5037773;28;72367;-48
2022/07/09 00:09:39;;;;;;;;;10.25;8.00;;;;;22.64;41.99;102265.84;5032622;28;45299;-44
2022/07/09 00:12:05;;;;;;;;;14.25;12.50;;;;;22.61;41.80;102268.69;5030850;28;72072;-46
2022/07/09 00:14:30;;;;;;;;;18.25;12.75;;;;;22.60;41.48;102272.31;5030603;28;46527;-47
2022/07/09 00:16:56;;;;;;;;;16.75;14.50;;;;;22.57;42.29;102267.13;5032530;28;45383;-47
2022/07/09 00:19:21;;;;;;;;;18.00;16.75;;;;;22.55;42.23;102269.88;5034974;28;52299;-45
2022/07/09 00:21:46;;;;;;;;;19.50;16.25;;;;;22.53;41.98;102273.56;5027752;28;71315;-45
2022/07/09 00:24:12;;;;;;;;;25.50;20.50;;;;;22.51;42.08;102265.66;5031168;28;56572;-46
2022/07/09 00:26:37;;;;;;;;;26.50;24.25;;;;;22.48;42.21;102264.94;5024595;28;72989;-48
2022/07/09 00:29:02;;;;;;;;;27.00;20.75;;;;;22.45;42.71;102257.97;5028812;28;52186;-49
2022/07/09 00:31:27;;;;;;;;;25.00;22.25;;;;;22.43;42.50;102259.00;5036321;28;55989;-47
2022/07/09 00:33:54;;;;;;;;;30.75;26.25;;;;;22.41;42.53;102259.06;5026827;28;72343;-48
2022/07/09 00:36:19;;;;;;;;;29.50;25.00;;;;;22.39;42.55;102258.28;5037008;28;45851;-47
2022/07/09 00:38:44;;;;;;;;;28.25;23.25;;;;;22.39;42.50;102252.94;5022681;28;65131;-48
2022/07/09 00:41:10;;;;;;;;;28.00;24.75;;;;;22.37;42.69;102252.19;5037032;28;45321;-45
2022/07/09 00:43:35;;;;;;;;;24.50;18.25;;;;;22.36;42.47;102248.66;5033648;28;72384;-46
2022/07/09 00:46:00;;;;;;;;;12.00;11.00;;;;;22.33;42.67;102243.47;5036475;28;45308;-44
2022/07/09 00:48:26;;;;;;;;;10.25;7.00;;;;;22.31;42.83;102249.81;5027100;28;68476;-47
2022/07/09 00:50:51;;;;;;;;;12.00;7.75;;;;;22.28;42.85;102250.84;5029320;28;45632;-47
2022/07/09 00:53:19;;;;;;;;;10.50;9.00;;;;;22.25;42.93;102253.63;5034132;28;60503;-49
2022/07/09 00:55:47;;;;;;;;;9.75;7.25;;;;;22.20;43.10;102253.00;5029449;28;45340;-48
2022/07/09 00:58:15;;;;;;;;;6.75;6.75;;;;;22.17;42.97;102248.72;5019789;28;45408;-45
2022/07/09 01:00:40;;;;;;;;;7.25;7.00;;;;;22.14;43.38;102248.88;5028725;28;45469;-49
2022/07/09 01:03:06;;;;;;;;;9.00;6.75;;;;;22.11;43.00;102250.81;5030343;28;73156;-47
2022/07/09 01:05:35;;;;;;;;;6.25;4.50;;;;;22.08;43.26;102246.53;5033241;28;68115;-47
2022/07/09 01:08:02;;;;;;;;;7.75;7.25;;;;;22.05;43.33;102244.00;5035292;28;45438;-48
2022/07/09 01:10:28;;;;;;;;;8.25;6.75;;;;;22.02;43.40;102237.97;5029596;28;45657;-46
2022/07/09 01:12:55;;;;;;;;;6.25;5.00;;;;;21.99;43.08;102239.88;5027888;28;45625;-44
2022/07/09 01:15:20;;;;;;;;;5.75;5.75;;;;;21.97;43.60;102239.09;5034512;28;45876;-48
2022/07/09 01:17:45;;;;;;;;;4.50;4.50;;;;;21.94;43.51;102233.91;5032395;28;45394;-44
2022/07/09 01:20:11;;;;;;;;;3.00;3.00;;;;;21.91;43.84;102239.38;5031493;28;59868;-48
2022/07/09 01:22:36;;;;;;;;;9.75;8.50;;;;;21.89;43.75;102232.41;5036234;28;47000;-45
2022/07/09 01:25:05;;;;;;;;;8.00;6.75;;;;;21.87;43.59;102231.59;5037119;28;45489;-48
2022/07/09 01:27:30;;;;;;;;;9.75;8.00;;;;;21.84;44.09;102231.78;5032688;28;45502;-46
2022/07/09 01:29:56;;;;;;;;;12.25;8.75;;;;;21.82;43.99;102221.19;5034274;28;57290;-46
2022/07/09 01:32:21;;;;;;;;;10.25;9.00;;;;;21.80;44.30;102223.09;5038962;28;72735;-44
2022/07/09 01:34:46;;;;;;;;;6.75;6.75;;;;;21.78;44.01;102220.50;5032414;28;69841;-45
2022/07/09 01:37:12;;;;;;;;;10.75;9.00;;;;;21.78;44.19;102220.50;5037620;28;66948;-47
2022/07/09 01:39:49;;;;;;;;;12.75;9.75;;;;;21.78;44.67;102219.66;5040518;28;45312;-48
2022/07/09 01:42:18;;;;;;;;;10.25;9.00;;;;;21.76;44.58;102214.38;5035218;28;47333;-47
2022/07/09 01:44:44;;;;;;;;;10.50;9.25;;;;;21.75;44.38;102217.13;5030876;28;45399;-46
2022/07/09 01:47:10;;;;;;;;;10.00;8.00;;;;;21.75;43.74;102203.81;5028008;28;45324;-48
2022/07/09 01:49:35;;;;;;;;;8.75;8.50;;;;;21.71;44.51;102211.09;5032081;28;45278;-45
2022/07/09 01:52:00;;;;;;;;;11.25;8.00;;;;;21.71;43.92;102220.88;5033659;28;74207;-44
2022/07/09 01:54:26;;;;;;;;;10.25;8.00;;;;;21.68;44.86;102213.91;5028165;28;45454;-46
2022/07/09 01:56:51;;;;;;;;;10.00;7.25;;;;;21.67;44.89;102208.66;5035916;28;59331;-47
2022/07/09 01:59:16;;;;;;;;;8.00;7.50;;;;;21.65;44.91;102208.72;5030168;28;51878;-51
2022/07/09 02:01:42;;;;;;;;;9.00;9.00;;;;;21.65;44.49;102202.53;5030270;28;46370;-48
2022/07/09 02:04:07;;;;;;;;;8.25;7.75;;;;;21.64;44.96;102198.13;5030884;28;45466;-50
2022/07/09 02:06:33;;;;;;;;;8.00;8.00;;;;;21.62;44.99;102192.91;5040842;28;45232;-46
2022/07/09 02:08:58;;;;;;;;;15.00;10.00;;;;;21.60;44.58;102195.66;5035082;28;64311;-50
2022/07/09 02:11:23;;;;;;;;;11.75;10.00;;;;;21.62;44.99;102198.25;5030105;28;68331;-47
2022/07/09 02:13:49;;;;;;;;;11.75;11.00;;;;;21.60;45.32;102195.66;5030838;28;73317;-49
2022/07/09 02:16:14;;;;;;;;;8.25;8.25;;;;;21.60;45.21;102198.31;5039445;28;55562;-51
2022/07/09 02:18:39;;;;;;;;;9.00;8.25;;;;;21.58;45.00;102193.97;5032099;28;45490;-49
2022/07/09 02:21:05;;;;;;;;;10.75;8.25;;;;;21.57;45.02;102189.63;5035552;28;51710;-47
2022/07/09 02:23:31;;;;;;;;;11.75;8.00;;;;;21.55;45.30;102189.69;5037678;28;45241;-50
2022/07/09 02:25:56;;;;;;;;;8.00;8.00;;;;;21.54;45.17;102187.94;5039947;28;66288;-51
2022/07/09 02:28:21;;;;;;;;;9.50;9.00;;;;;21.53;45.33;102186.25;5035682;28;72139;-50
2022/07/09 02:30:47;;;;;;;;;9.00;7.50;;;;;21.51;45.12;102185.44;5039650;28;46244;-50
2022/07/09 02:33:13;;;;;;;;;7.00;7.00;;;;;21.50;45.08;102182.88;5038473;28;45399;-46
2022/07/09 02:35:38;;;;;;;;;9.00;8.00;;;;;21.49;45.47;102184.66;5032375;28;61006;-47
2022/07/09 02:38:04;;;;;;;;;7.00;6.00;;;;;21.48;45.80;102177.63;5029270;28;45380;-46
2022/07/09 02:40:29;;;;;;;;;9.00;7.00;;;;;21.46;45.75;102179.50;5036205;28;73533;-47
2022/07/09 02:42:54;;;;;;;;;9.25;8.00;;;;;21.43;45.77;102182.28;5038823;28;72170;-51
2022/07/09 02:45:20;;;;;;;;;7.00;7.00;;;;;21.41;45.82;102187.66;5031611;28;45403;-51
2022/07/09 02:47:45;;;;;;;;;9.25;9.00;;;;;21.39;45.75;102181.56;5038242;28;59479;-48
2022/07/09 02:50:10;;;;;;;;;11.00;8.75;;;;;21.38;45.52;102173.66;5036073;28;50569;-50
2022/07/09 02:52:36;;;;;;;;;9.75;8.25;;;;;21.37;46.08;102175.47;5030231;28;53157;-50
2022/07/09 02:55:01;;;;;;;;;9.50;8.75;;;;;21.36;45.54;102180.84;5031293;28;65241;-46
2022/07/09 02:57:26;;;;;;;;;10.25;8.00;;;;;21.34;45.75;102180.06;5039782;28;45426;-47
2022/07/09 02:59:52;;;;;;;;;8.50;8.50;;;;;21.31;46.15;102174.88;5029879;28;72368;-46
2022/07/09 03:02:17;;;;;;;;;9.00;7.00;;;;;21.30;45.84;102179.38;5040062;28;65499;-48
2022/07/09 03:04:42;;;;;;;;;7.75;7.50;;;;;21.27;45.71;102178.66;5033374;28;59207;-47
2022/07/09 03:07:08;;;;;;;;;9.25;7.00;;;;;21.20;46.25;102178.94;5027680;28;62808;-46
2022/07/09 03:09:33;;;;;;;;;12.75;9.75;;;;;21.18;46.01;102183.47;5032062;28;51635;-44
2022/07/09 03:11:58;;;;;;;;;8.00;7.25;;;;;21.17;45.24;102189.72;5027748;28;49674;-46
2022/07/09 03:14:24;;;;;;;;;12.75;10.00;;;;;21.15;46.35;102188.09;5035883;28;66240;-47
2022/07/09 03:16:49;;;;;;;;;11.25;8.00;;;;;21.12;46.09;102189.09;5029219;28;45430;-44
2022/07/09 03:19:15;;;;;;;;;9.50;8.50;;;;;21.10;46.13;102187.44;5035725;28;73761;-44
2022/07/09 03:21:40;;;;;;;;;12.50;9.00;;;;;21.08;45.86;102184.84;5038177;28;45278;-46
2022/07/09 03:24:07;;;;;;;;;7.75;7.00;;;;;21.03;46.11;102182.44;5029099;28;60330;-44
2022/07/09 03:26:33;;;;;;;;;9.25;8.25;;;;;21.01;46.39;102186.09;5039974;28;45333;-47
2022/07/09 03:28:58;;;;;;;;;10.50;8.50;;;;;20.97;46.23;102195.16;5026923;28;72972;-46
2022/07/09 03:31:23;;;;;;;;;10.50;9.00;;;;;20.92;46.65;102189.19;5039261;28;68422;-50
2022/07/09 03:33:53;;;;;;;;;9.00;8.75;;;;;20.88;46.47;102190.28;5027790;28;58845;-50
2022/07/09 03:36:18;;;;;;;;;11.00;7.75;;;;;20.85;46.34;102193.94;5027589;28;45376;-51
2022/07/09 03:38:43;;;;;;;;;7.50;7.50;;;;;20.82;47.20;102191.41;5026866;28;46173;-45
2022/07/09 03:41:09;;;;;;;;;9.25;8.25;;;;;20.80;47.15;102199.47;5026704;28;60607;-47
2022/07/09 03:43:34;;;;;;;;;11.00;9.00;;;;;20.80;47.33;102199.47;5024680;28;58341;-49
2022/07/09 03:45:59;;;;;;;;;13.25;8.25;;;;;20.79;47.13;102189.78;5027990;28;45417;-46
2022/07/09 03:48:25;;;;;;;;;10.75;8.00;;;;;20.80;47.17;102199.47;5032160;28;67108;-45
2022/07/09 03:50:50;;;;;;;;;10.50;8.00;;;;;20.78;46.98;102196.00;5033026;28;56857;-47
2022/07/09 03:53:15;;;;;;;;;10.00;8.25;;;;;20.78;46.56;102200.47;5027007;28;62655;-50
2022/07/09 03:55:41;;;;;;;;;8.50;6.00;;;;;20.73;47.22;102200.69;5037507;28;45305;-50
2022/07/09 03:58:06;;;;;;;;;8.25;7.25;;;;;20.72;47.63;102206.09;5026650;28;72928;-46
2022/07/09 04:00:32;;;;;;;;;9.50;8.25;;;;;20.69;47.66;102208.91;5029451;28;45209;-48
2022/07/09 04:02:57;;;;;;;;;11.75;8.00;;;;;20.65;46.80;102214.34;5022854;28;45877;-48
2022/07/09 04:05:22;;;;;;;;;10.25;10.00;;;;;20.60;47.35;102218.97;5034446;28;45337;-50
2022/07/09 04:07:48;;;;;;;;;10.00;7.75;;;;;20.58;47.24;102222.66;5028167;28;45294;-50
2022/07/09 04:10:13;;;;;;;;;11.00;9.50;;;;;20.56;47.66;102232.50;5026968;28;53183;-49
2022/07/09 04:12:38;;;;;;;;;8.50;8.50;;;;;20.55;47.27;102222.78;5030516;28;53360;-50
2022/07/09 04:15:04;;;;;;;;;10.25;9.00;;;;;20.53;47.44;102228.16;5026703;28;71407;-53
2022/07/09 04:17:30;;;;;;;;;10.00;8.50;;;;;20.54;46.92;102231.69;5030705;28;46217;-50
2022/07/09 04:19:55;;;;;;;;;9.75;9.50;;;;;20.51;47.15;102213.22;5028759;28;45506;-49
2022/07/09 04:22:20;;;;;;;;;12.00;8.25;;;;;20.48;47.16;102222.19;5032987;28;45339;-50
2022/07/09 04:24:46;;;;;;;;;11.00;9.25;;;;;20.46;47.29;102221.41;5035722;28;45547;-50
2022/07/09 04:27:11;;;;;;;;;11.50;9.00;;;;;20.44;47.13;102216.16;5032595;28;66883;-48
2022/07/09 04:29:36;;;;;;;;;9.00;8.25;;;;;20.43;47.56;102222.41;5038232;28;45890;-50
2022/07/09 04:32:02;;;;;;;;;9.25;9.25;;;;;20.40;47.93;102221.69;5036244;28;53729;-50
2022/07/09 04:34:27;;;;;;;;;11.25;8.75;;;;;20.38;47.67;102220.88;5037211;28;45359;-50
2022/07/09 04:36:53;;;;;;;;;11.25;7.75;;;;;20.39;47.74;102219.94;5031906;28;50883;-50
2022/07/09 04:39:18;;;;;;;;;11.00;8.75;;;;;20.39;47.92;102214.63;5028256;28;45439;-51
2022/07/09 04:41:44;;;;;;;;;9.75;8.75;;;;;20.39;47.64;102219.94;5034818;28;45373;-44
2022/07/09 04:44:11;;;;;;;;;8.75;7.50;;;;;20.39;47.74;102211.97;5027507;28;45434;-44
2022/07/09 04:46:36;;;;;;;;;12.50;10.50;;;;;20.39;47.99;102212.84;5037363;28;47031;-51
2022/07/09 04:49:02;;;;;;;;;11.75;9.00;;;;;20.40;48.17;102211.06;5033321;28;45267;-44
2022/07/09 04:51:27;;;;;;;;;9.75;8.25;;;;;20.41;48.01;102212.75;5033351;28;53843;-43
2022/07/09 04:53:53;;;;;;;;;10.50;8.50;;;;;20.41;47.96;102216.28;5027675;28;45214;-49
2022/07/09 04:56:18;;;;;;;;;11.25;9.00;;;;;20.43;48.01;102218.88;5035065;28;70836;-51
2022/07/09 04:58:51;;;;;;;;;10.00;9.00;;;;;20.43;48.20;102224.19;5025979;28;45311;-46
2022/07/09 05:01:18;;;;;;;;;8.25;8.00;;;;;20.43;48.07;102217.09;5036311;28;45263;-46
2022/07/09 05:03:44;;;;;;;;;11.00;10.00;;;;;20.43;48.50;102214.44;5026439;28;45478;-46
2022/07/09 05:06:09;;;;;;;;;10.00;9.75;;;;;20.45;48.30;102217.88;5034520;28;45520;-46
2022/07/09 05:08:35;;;;;;;;;12.75;9.25;;;;;20.44;48.21;102218.81;5027341;28;45383;-45
2022/07/09 05:11:00;;;;;;;;;8.75;7.25;;;;;20.44;48.28;102218.81;5032829;28;58037;-45
2022/07/09 05:13:26;;;;;;;;;12.00;10.00;;;;;20.45;48.30;102219.66;5031980;28;45262;-45
2022/07/09 05:15:51;;;;;;;;;11.00;10.00;;;;;20.47;48.25;102224.00;5036585;28;45924;-44
2022/07/09 05:18:17;;;;;;;;;11.25;9.75;;;;;20.49;48.10;102229.25;5030038;28;45468;-44
2022/07/09 05:20:42;;;;;;;;;10.50;8.75;;;;;20.53;47.73;102224.66;5035425;28;66566;-49
2022/07/09 05:23:07;;;;;;;;;11.00;9.00;;;;;20.56;47.99;102229.84;5024299;28;45489;-47
2022/07/09 05:25:33;;;;;;;;;11.00;10.25;;;;;20.58;48.12;102222.66;5033111;28;46025;-46
2022/07/09 05:27:58;;;;;;;;;12.00;10.50;;;;;20.59;48.55;102213.72;5032047;28;65421;-44
2022/07/09 05:30:23;;;;;;;;;13.75;10.00;;;;;20.62;48.59;102217.13;5032364;28;66536;-47
2022/07/09 05:32:49;;;;;;;;;12.00;11.00;;;;;20.65;48.40;102224.13;5024405;28;54761;-45
2022/07/09 05:35:14;;;;;;;;;12.00;10.00;;;;;20.69;48.55;102223.06;5031981;28;68557;-46
2022/07/09 05:37:43;;;;;;;;;12.00;12.00;;;;;20.76;48.27;102227.16;5036386;28;51736;-44
2022/07/09 05:40:09;;;;;;;;;12.50;10.50;;;;;20.78;48.29;102225.28;5046868;28;45550;-44
2022/07/09 05:42:35;;;;;;;;;14.25;13.00;;;;;20.82;47.88;102224.22;5012466;28;45551;-45
2022/07/09 05:45:00;;;;;;;;;19.75;16.25;;;;;20.87;47.81;102224.00;5026438;28;67885;-46
2022/07/09 05:47:25;;;;;;;;;15.00;12.25;;;;;20.90;48.04;102223.84;5030598;28;45526;-46
2022/07/09 05:49:51;;;;;;;;;15.25;10.00;;;;;20.93;47.69;102220.19;5025756;28;45379;-45
2022/07/09 05:52:16;;;;;;;;;16.50;13.25;;;;;20.95;47.93;102218.34;5036437;28;45496;-45
2022/07/09 05:54:42;;;;;;;;;15.25;14.00;;;;;21.00;47.73;102222.50;5027607;28;50332;-44
2022/07/09 05:57:07;;;;;;;;;14.00;10.75;;;;;21.05;48.14;102225.81;5032419;28;65038;-49
2022/07/09 05:59:32;;;;;;;;;14.25;10.50;;;;;21.10;47.83;102224.72;5024604;28;48522;-44
2022/07/09 06:01:58;;;;;;;;;13.25;12.00;;;;;21.15;48.10;102217.38;5034930;28;69629;-46
2022/07/09 06:04:23;;;;;;;;;12.00;11.00;;;;;21.18;47.67;102225.22;5032431;28;50350;-45
2022/07/09 06:06:49;;;;;;;;;47.50;36.25;;;;;21.17;47.83;102227.00;5024524;28;45401;-51
2022/07/09 06:09:14;;;;;;;;;16.00;14.00;;;;;21.23;47.72;102220.53;5032759;28;68040;-51
2022/07/09 06:11:39;;;;;;;;;14.00;11.50;;;;;21.23;47.05;102220.53;5034629;28;45221;-48
2022/07/09 06:14:05;;;;;;;;;12.75;11.50;;;;;21.22;47.64;102224.13;5034402;28;59497;-48
2022/07/09 06:16:30;;;;;;;;;16.00;11.50;;;;;21.19;47.42;102225.13;5037204;28;45245;-46
2022/07/09 06:18:55;;;;;;;;;13.00;11.50;;;;;21.16;47.82;102219.97;5035199;28;49878;-48
2022/07/09 06:21:21;;;;;;;;;11.00;10.25;;;;;21.15;47.77;102222.69;5032870;28;45329;-48
2022/07/09 06:23:46;;;;;;;;;13.25;12.00;;;;;21.14;47.55;102221.84;5035902;28;59382;-50
2022/07/09 06:26:12;;;;;;;;;12.75;9.25;;;;;21.17;47.97;102234.97;5035372;28;45307;-46
2022/07/09 06:28:37;;;;;;;;;10.50;10.50;;;;;21.19;48.19;102227.78;5035007;28;45248;-48
2022/07/09 06:31:03;;;;;;;;;11.50;11.50;;;;;21.23;47.62;102225.88;5034071;28;45537;-48
2022/07/09 06:33:28;;;;;;;;;14.75;11.00;;;;;21.28;47.82;102220.31;5031489;28;45833;-45
2022/07/09 06:35:53;;;;;;;;;14.25;12.25;;;;;21.31;48.02;102220.16;5029041;28;57251;-47
2022/07/09 06:38:19;;;;;;;;;12.25;11.50;;;;;21.32;47.35;102217.44;5029821;28;45645;-46
2022/07/09 06:40:44;;;;;;;;;10.00;9.00;;;;;21.31;47.01;102228.16;5039128;28;45706;-50
2022/07/09 06:43:11;;;;;;;;;12.75;11.00;;;;;21.27;47.41;102221.25;5029421;28;51867;-49
2022/07/09 06:45:36;;;;;;;;;10.00;9.00;;;;;21.27;47.85;102226.59;5034225;28;45389;-49
2022/07/09 06:48:02;;;;;;;;;11.50;10.25;;;;;21.29;47.81;102219.38;5022070;28;45474;-51
2022/07/09 06:50:27;;;;;;;;;12.25;10.00;;;;;21.29;47.56;102228.22;5034918;28;45357;-46
2022/07/09 06:52:53;;;;;;;;;24.50;22.00;;;;;21.31;48.03;102229.00;5016339;28;46296;-50
2022/07/09 06:55:18;;;;;;;;;14.25;12.75;;;;;21.34;47.92;102220.88;5035208;28;52840;-47
2022/07/09 06:57:43;;;;;;;;;12.75;10.50;;;;;21.44;47.88;102226.59;5010798;28;59333;-49
2022/07/09 07:00:09;;;;;;;;;12.00;12.00;;;;;21.50;47.25;102225.50;5031543;28;45451;-47
2022/07/09 07:02:35;;;;;;;;;13.50;10.75;;;;;21.54;47.78;102227.06;5035847;28;46061;-52
2022/07/09 07:05:00;;;;;;;;;11.00;10.50;;;;;21.59;47.77;102225.03;5036708;28;45466;-49
2022/07/09 07:07:26;;;;;;;;;13.25;12.25;;;;;21.64;47.48;102223.00;5037387;28;46359;-46
2022/07/09 07:09:51;;;;;;;;;13.25;11.25;;;;;21.68;47.55;102213.91;5031897;28;45653;-49
2022/07/09 07:12:16;;;;;;;;;15.50;12.75;;;;;21.77;47.20;102225.91;5036220;28;46012;-50
2022/07/09 07:14:42;;;;;;;;;8.75;8.50;;;;;21.82;47.30;102215.03;5034532;28;45393;-51
2022/07/09 07:17:08;;;;;;;;;14.00;11.50;;;;;21.87;46.82;102212.94;5017819;28;45577;-48
2022/07/09 07:19:34;;;;;;;;;10.25;10.00;;;;;21.91;47.06;102218.06;5031560;28;45340;-46
2022/07/09 07:21:59;;;;;;;;;13.75;10.00;;;;;21.97;47.19;102216.88;5035397;28;45407;-48
2022/07/09 07:24:25;;;;;;;;;11.50;10.00;;;;;22.05;47.00;102221.84;5035769;28;62509;-49
2022/07/09 07:26:50;;;;;;;;;13.75;11.00;;;;;22.11;47.07;102221.50;5032444;28;45315;-46
2022/07/09 07:29:15;;;;;;;;;37.75;31.25;;;;;22.19;47.02;102217.50;5019827;28;45581;-51
2022/07/09 07:31:41;;;;;;;;;11.00;10.00;;;;;22.27;46.61;102213.59;5053591;28;46565;-49
2022/07/09 07:34:06;;;;;;;;;13.25;9.25;;;;;22.33;46.67;102211.47;5037591;28;64396;-49
2022/07/09 07:36:32;;;;;;;;;9.75;9.00;;;;;22.42;46.48;102225.28;5037663;28;45253;-47
2022/07/09 07:38:57;;;;;;;;;11.25;9.50;;;;;22.48;45.95;102228.44;5029066;28;45494;-48
2022/07/09 07:41:23;;;;;;;;;10.00;9.25;;;;;22.53;46.42;102229.06;5035922;28;61540;-45
2022/07/09 07:43:48;;;;;;;;;8.00;8.00;;;;;22.58;45.90;102220.81;5035364;28;45436;-48
2022/07/09 07:46:14;;;;;;;;;13.25;9.50;;;;;22.65;45.54;102224.03;5032569;28;57112;-48
2022/07/09 07:48:42;;;;;;;;;10.00;10.00;;;;;22.73;45.80;102227.13;5018738;28;45306;-48
2022/07/09 07:51:09;;;;;;;;;9.50;8.00;;;;;22.80;45.76;102219.66;5032987;28;46295;-47
2022/07/09 07:53:35;;;;;;;;;11.25;10.25;;;;;22.87;45.38;102221.88;5017854;28;45601;-50
2022/07/09 07:56:01;;;;;;;;;14.00;11.50;;;;;22.96;45.52;102222.31;5033551;28;45494;-51
2022/07/09 07:58:26;;;;;;;;;14.00;12.50;;;;;23.05;45.17;102219.16;5027795;28;45455;-52
2022/07/09 08:00:52;;;;;;;;;13.00;10.75;;;;;23.12;45.16;102217.88;5026965;28;66445;-50
2022/07/09 08:03:17;;;;;;;;;9.25;8.00;;;;;23.17;44.44;102220.31;5036934;28;61377;-49
2022/07/09 08:05:42;;;;;;;;;9.00;8.50;;;;;23.24;44.91;102213.66;5032731;28;61455;-48
2022/07/09 08:08:08;;;;;;;;;8.50;7.00;;;;;23.32;44.59;102214.09;5040658;28;45288;-49
2022/07/09 08:10:33;;;;;;;;;10.25;7.00;;;;;23.39;44.69;102211.91;5034180;28;47229;-48
2022/07/09 08:12:58;;;;;;;;;13.25;10.25;;;;;23.44;44.36;102212.50;5035651;28;50946;-49
2022/07/09 08:15:24;;;;;;;;;8.00;7.50;;;;;23.47;44.00;102207.84;5035191;28;54890;-49
2022/07/09 08:17:49;;;;;;;;;9.00;8.00;;;;;23.52;43.95;102210.25;5035347;28;45876;-50
2022/07/09 08:20:14;;;;;;;;;9.50;9.00;;;;;23.58;44.21;102209.88;5035622;28;46566;-49
2022/07/09 08:22:40;;;;;;;;;7.00;7.00;;;;;23.65;43.94;102207.72;5025904;28;45298;-50
2022/07/09 08:25:05;;;;;;;;;6.00;6.00;;;;;23.74;43.90;102201.81;5034793;28;45264;-52
2022/07/09 08:27:31;;;;;;;;;7.00;7.00;;;;;23.80;43.84;102201.50;5033024;28;45348;-53
2022/07/09 08:29:56;;;;;;;;;6.50;6.50;;;;;23.90;43.21;102203.63;5035992;28;58016;-50
2022/07/09 08:32:21;;;;;;;;;8.00;7.75;;;;;23.97;42.37;102199.63;5018030;28;45420;-52
2022/07/09 08:34:47;;;;;;;;;7.00;7.00;;;;;24.03;42.60;102200.13;5028861;28;45482;-48
2022/07/09 08:37:12;;;;;;;;;7.00;6.25;;;;;24.11;42.70;102201.47;5031288;28;45632;-51
2022/07/09 08:39:37;;;;;;;;;8.50;6.50;;;;;24.18;42.55;102205.47;5032659;28;45404;-51
2022/07/09 08:42:08;;;;;;;;;6.25;5.25;;;;;24.26;42.37;102204.06;5028552;28;45658;-51
2022/07/09 08:44:35;;;;;;;;;7.00;5.25;;;;;24.36;42.14;102200.81;5027436;28;45323;-49
2022/07/09 08:47:01;;;;;;;;;7.50;6.00;;;;;24.43;42.19;102195.00;5029566;28;45324;-56
2022/07/09 08:49:28;;;;;;;;;7.00;7.00;;;;;24.49;41.69;102192.88;5024077;28;46145;-48
2022/07/09 08:51:55;;;;;;;;;8.00;5.75;;;;;24.55;41.67;102192.53;5034092;28;45476;-49
2022/07/09 08:54:20;;;;;;;;;4.50;4.00;;;;;24.62;41.24;102194.72;5032773;28;46118;-47
2022/07/09 08:56:46;;;;;;;;;2.00;2.00;;;;;24.66;40.92;102192.69;5033588;28;45904;-50
2022/07/09 08:59:11;;;;;;;;;3.00;3.00;;;;;24.71;40.95;102184.38;5031394;28;46360;-48
2022/07/09 09:01:36;;;;;;;;;5.00;5.00;;;;;24.75;40.30;102181.38;5037077;28;45797;-50
2022/07/09 09:04:02;;;;;;;;;6.25;4.75;;;;;24.79;40.69;102185.59;5028676;28;45364;-46
2022/07/09 09:06:27;;;;;;;;;6.00;4.00;;;;;24.84;40.60;102185.28;5030872;28;45427;-49
2022/07/09 09:08:56;;;;;;;;;5.25;3.00;;;;;24.87;40.39;102179.75;5017786;28;46201;-49
2022/07/09 09:11:24;;;;;;;;;4.25;3.25;;;;;24.92;40.21;102179.47;5021145;28;45878;-50
2022/07/09 09:13:50;;;;;;;;;3.00;3.00;;;;;24.97;40.29;102180.88;5049554;28;45656;-52
2022/07/09 09:16:17;;;;;;;;;5.25;4.00;;;;;25.06;39.84;102179.41;5021151;28;45344;-52
2022/07/09 09:18:44;;;;;;;;;6.50;4.75;;;;;25.14;40.15;102168.19;5010385;28;45435;-52
2022/07/09 09:21:10;;;;;;;;;4.00;4.00;;;;;25.21;39.89;102161.47;5032608;28;45364;-52
2022/07/09 09:23:47;;;;;;;;;6.00;3.50;;;;;25.30;39.59;102170.75;5023903;28;45158;-51
2022/07/09 09:26:16;;;;;;;;;5.25;5.25;;;;;25.40;39.88;102177.22;5038499;28;45504;-51
2022/07/09 09:29:01;;;;;;;;;5.00;4.50;;;;;25.47;39.50;102170.47;5033727;28;48289;-53
2022/07/09 09:31:32;;;;;;;;;6.00;4.00;;;;;25.54;39.45;102160.19;5019717;28;45355;-51
2022/07/09 09:34:06;;;;;;;;;6.25;5.00;;;;;25.61;38.94;102171.38;5025564;28;46101;-47
2022/07/09 09:36:40;;;;;;;;;4.75;4.25;;;;;25.64;39.03;102172.03;5035140;28;45441;-49
2022/07/09 09:39:08;;;;;;;;;11.00;8.75;;;;;25.71;39.36;102170.63;5033941;28;45514;-49
2022/07/09 09:41:34;;;;;;;;;6.75;6.00;;;;;25.80;38.91;102171.84;5031521;28;45472;-48
2022/07/09 09:44:05;;;;;;;;;4.00;4.00;;;;;25.95;39.01;102172.63;5035350;28;45519;-47
2022/07/09 09:46:32;;;;;;;;;5.00;4.00;;;;;26.29;38.94;102181.84;5036243;28;45619;-47
2022/07/09 09:48:58;;;;;;;;;7.50;4.75;;;;;26.92;38.48;102171.09;5030859;28;46241;-48
2022/07/09 09:51:24;;;;;;;;;4.50;4.00;;;;;28.08;37.43;102175.81;5023509;28;45435;-51
2022/07/09 09:53:50;;;;;;;;;5.75;4.00;;;;;29.64;35.95;102177.47;5036402;28;45514;-51
2022/07/09 09:56:16;;;;;;;;;6.75;4.00;;;;;31.22;34.08;102170.75;5034746;28;63910;-52
2022/07/09 09:58:41;;;;;;;;;5.25;2.75;;;;;32.80;32.40;102173.72;5036307;28;63138;-51
2022/07/09 10:01:07;;;;;;;;;11.25;6.75;;;;;34.30;30.28;102169.31;5029186;28;66879;-51
2022/07/09 10:03:32;;;;;;;;;4.75;4.75;;;;;35.54;29.17;102163.97;5037494;28;45426;-49
2022/07/09 10:05:58;;;;;;;;;10.75;9.00;;;;;36.30;28.00;102164.50;5035508;28;57703;-48
2022/07/09 10:08:23;;;;;;;;;5.00;4.50;;;;;36.15;26.50;102166.22;5021772;28;46088;-49
2022/07/09 10:10:52;;;;;;;;;4.25;4.25;;;;;36.66;27.08;102168.56;5033981;28;45415;-50
2022/07/09 10:13:23;;;;;;;;;4.50;4.50;;;;;37.69;26.05;102171.91;5029413;28;45311;-49
2022/07/09 10:15:51;;;;;;;;;5.00;4.00;;;;;38.89;25.09;102162.56;5035869;28;57174;-49
2022/07/09 10:18:19;;;;;;;;;4.25;4.25;;;;;39.65;23.16;102154.59;5034454;28;45233;-51
2022/07/09 10:20:44;;;;;;;;;3.00;3.00;;;;;40.19;23.31;102153.00;5037875;28;45674;-51
2022/07/09 10:23:23;;;;;;;;;4.00;4.00;;;;;39.43;23.47;102156.50;5029754;28;45580;-51
2022/07/09 10:25:52;;;;;;;;;4.25;3.00;;;;;38.91;22.81;102157.72;5053517;28;45429;-51
2022/07/09 10:28:18;;;;;;;;;5.00;5.00;;;;;37.85;24.35;102151.75;5029449;28;46172;-48
2022/07/09 10:30:44;;;;;;;;;4.25;3.25;;;;;37.79;24.35;102154.22;5035038;28;45254;-52
2022/07/09 10:33:12;;;;;;;;;3.00;3.00;;;;;37.46;24.00;102152.84;5032172;28;45540;-49
2022/07/09 10:35:45;;;;;;;;;5.50;5.00;;;;;38.14;23.98;102159.13;5035888;28;45261;-46
2022/07/09 10:38:11;;;;;;;;;7.00;5.00;;;;;38.08;23.21;102147.03;5032688;28;46292;-51
2022/07/09 10:40:47;;;;;;;;;3.00;3.00;;;;;38.10;23.49;102141.38;5031175;28;45950;-49
2022/07/09 10:43:13;;;;;;;;;4.00;3.50;;;;;38.96;22.36;102147.03;5024099;28;45261;-52
2022/07/09 10:45:40;;;;;;;;;4.25;3.00;;;;;39.91;21.44;102138.50;5030265;28;45447;-51
2022/07/09 10:48:09;;;;;;;;;4.00;4.00;;;;;40.95;20.63;102137.41;5032322;28;46502;-51
2022/07/09 10:50:38;;;;;;;;;2.25;2.25;;;;;41.96;20.61;102132.66;5027724;28;45884;-53
2022/07/09 10:53:04;;;;;;;;;3.75;2.50;;;;;42.70;20.14;102141.44;5031965;28;45364;-50
2022/07/09 10:55:30;;;;;;;;;2.50;2.00;;;;;43.41;19.25;102129.22;5033307;28;45400;-51
2022/07/09 10:57:55;;;;;;;;;3.00;2.00;;;;;43.94;18.64;102133.31;5037630;28;46148;-52
2022/07/09 11:00:23;;;;;;;;;3.00;3.00;;;;;44.35;18.39;102121.50;5034331;28;45353;-49
2022/07/09 11:03:04;;;;;;;;;2.50;2.50;;;;;44.60;17.76;102119.69;5038559;28;45195;-52
2022/07/09 11:05:31;;;;;;;;;3.50;3.25;;;;;44.90;17.67;102125.16;5030132;28;46172;-53
2022/07/09 11:08:03;;;;;;;;;1.00;1.00;;;;;44.57;16.24;102112.72;5024835;28;45410;-51
2022/07/09 11:10:29;;;;;;;;;2.00;2.00;;;;;43.59;17.45;102100.81;5034710;28;45459;-52
2022/07/09 11:12:58;;;;;;;;;3.00;1.00;;;;;43.18;18.42;102118.81;5030963;28;46429;-52
2022/07/09 11:15:26;;;;;;;;;3.00;3.00;;;;;43.33;17.53;102116.56;5031339;28;45670;-54